sensor_id;sensor_type;location;lat;lon;timestamp;pressure;altitude;pressure_sealevel;temperature;humidity
56456;BME280;42354;53.218;6.564;2023-04-08T00:00:57;46944.19;;;-142.92;85.87
56456;BME280;42354;53.218;6.564;2023-04-08T00:03:22;46919.56;;;-142.92;86.54
56456;BME280;42354;53.218;6.564;2023-04-08T00:05:48;46940.09;;;-142.92;86.91
56456;BME280;42354;53.218;6.564;2023-04-08T00:08:13;46938.03;;;-142.92;87.23
56456;BME280;42354;53.218;6.564;2023-04-08T00:10:38;46938.03;;;-142.92;87.41
56456;BME280;42354;53.218;6.564;2023-04-08T00:13:04;46942.13;;;-142.92;87.50
56456;BME280;42354;53.218;6.564;2023-04-08T00:15:30;46913.41;;;-142.92;88.73
56456;BME280;42354;53.218;6.564;2023-04-08T00:17:55;46935.97;;;-142.92;89.09
56456;BME280;42354;53.218;6.564;2023-04-08T00:20:22;46942.13;;;-142.92;89.22
56456;BME280;42354;53.218;6.564;2023-04-08T00:22:52;46921.63;;;-142.92;89.11
56456;BME280;42354;53.218;6.564;2023-04-08T00:25:17;46911.38;;;-142.92;89.58
56456;BME280;42354;53.218;6.564;2023-04-08T00:27:42;46927.78;;;-142.92;89.69
56456;BME280;42354;53.218;6.564;2023-04-08T00:30:08;46946.25;;;-142.92;90.17
56456;BME280;42354;53.218;6.564;2023-04-08T00:32:34;46944.19;;;-142.92;90.76
56456;BME280;42354;53.218;6.564;2023-04-08T00:37:24;46925.72;;;-142.92;91.78
56456;BME280;42354;53.218;6.564;2023-04-08T00:39:50;46919.56;;;-142.92;91.98
56456;BME280;42354;53.218;6.564;2023-04-08T00:42:18;46931.88;;;-142.92;92.09
56456;BME280;42354;53.218;6.564;2023-04-08T00:44:43;46925.72;;;-142.92;92.82
56456;BME280;42354;53.218;6.564;2023-04-08T00:47:17;46929.81;;;-142.92;93.13
56456;BME280;42354;53.218;6.564;2023-04-08T00:49:44;46940.09;;;-142.92;93.27
56456;BME280;42354;53.218;6.564;2023-04-08T00:52:10;46931.88;;;-142.92;93.27
56456;BME280;42354;53.218;6.564;2023-04-08T00:54:37;46938.03;;;-142.92;93.07
56456;BME280;42354;53.218;6.564;2023-04-08T00:57:04;46925.72;;;-142.92;93.31
56456;BME280;42354;53.218;6.564;2023-04-08T00:59:31;46929.81;;;-142.92;93.47
56456;BME280;42354;53.218;6.564;2023-04-08T01:02:31;46938.03;;;-142.92;94.41
56456;BME280;42354;53.218;6.564;2023-04-08T01:05:03;46925.72;;;-142.92;94.50
56456;BME280;42354;53.218;6.564;2023-04-08T01:07:35;46935.97;;;-142.92;94.71
56456;BME280;42354;53.218;6.564;2023-04-08T01:10:05;46933.94;;;-142.92;94.68
56456;BME280;42354;53.218;6.564;2023-04-08T01:12:36;46917.53;;;-142.92;95.16
56456;BME280;42354;53.218;6.564;2023-04-08T01:15:07;46940.09;;;-142.92;95.40
56456;BME280;42354;53.218;6.564;2023-04-08T01:17:34;46917.53;;;-142.92;95.86
56456;BME280;42354;53.218;6.564;2023-04-08T01:20:03;46938.03;;;-142.92;95.92
56456;BME280;42354;53.218;6.564;2023-04-08T01:22:54;46929.81;;;-142.92;96.20
56456;BME280;42354;53.218;6.564;2023-04-08T01:25:34;46915.47;;;-142.92;96.89
56456;BME280;42354;53.218;6.564;2023-04-08T01:28:05;46925.72;;;-142.92;96.38
56456;BME280;42354;53.218;6.564;2023-04-08T01:30:32;46942.13;;;-142.92;96.85
56456;BME280;42354;53.218;6.564;2023-04-08T01:33:00;46905.22;;;-142.92;96.89
56456;BME280;42354;53.218;6.564;2023-04-08T01:35:29;46927.78;;;-142.92;97.57
56456;BME280;42354;53.218;6.564;2023-04-08T01:37:55;46917.53;;;-142.92;97.54
56456;BME280;42354;53.218;6.564;2023-04-08T01:42:48;46938.03;;;-142.92;98.08
56456;BME280;42354;53.218;6.564;2023-04-08T01:45:15;46917.53;;;-142.92;98.16
56456;BME280;42354;53.218;6.564;2023-04-08T01:47:42;46938.03;;;-142.92;98.39
56456;BME280;42354;53.218;6.564;2023-04-08T01:50:09;46927.78;;;-142.92;99.17
56456;BME280;42354;53.218;6.564;2023-04-08T01:52:37;46938.03;;;-142.92;98.81
56456;BME280;42354;53.218;6.564;2023-04-08T01:55:03;46925.72;;;-142.92;99.46
56456;BME280;42354;53.218;6.564;2023-04-08T01:57:31;46942.13;;;-142.92;99.80
56456;BME280;42354;53.218;6.564;2023-04-08T02:00:04;46929.81;;;-142.92;100.00
56456;BME280;42354;53.218;6.564;2023-04-08T02:02:32;46938.03;;;-142.92;100.00
56456;BME280;42354;53.218;6.564;2023-04-08T02:05:00;46946.25;;;-142.92;100.00
56456;BME280;42354;53.218;6.564;2023-04-08T02:07:25;46944.19;;;-142.92;100.00
56456;BME280;42354;53.218;6.564;2023-04-08T02:09:50;46929.81;;;-142.92;100.00
56456;BME280;42354;53.218;6.564;2023-04-08T02:12:16;46938.03;;;-142.92;100.00
56456;BME280;42354;53.218;6.564;2023-04-08T02:14:41;46944.19;;;-142.92;100.00
56456;BME280;42354;53.218;6.564;2023-04-08T02:19:46;46925.72;;;-142.92;100.00
56456;BME280;42354;53.218;6.564;2023-04-08T02:22:20;46931.88;;;-142.92;100.00
56456;BME280;42354;53.218;6.564;2023-04-08T02:24:48;46938.03;;;-142.92;100.00
56456;BME280;42354;53.218;6.564;2023-04-08T02:27:15;46929.81;;;-142.92;100.00
56456;BME280;42354;53.218;6.564;2023-04-08T02:32:07;46915.47;;;-142.92;100.00
56456;BME280;42354;53.218;6.564;2023-04-08T02:34:39;46946.25;;;-142.92;100.00
56456;BME280;42354;53.218;6.564;2023-04-08T02:37:04;46933.94;;;-142.92;100.00
56456;BME280;42354;53.218;6.564;2023-04-08T02:39:33;46940.09;;;-142.92;100.00
56456;BME280;42354;53.218;6.564;2023-04-08T02:41:59;46933.94;;;-142.92;100.00
56456;BME280;42354;53.218;6.564;2023-04-08T02:44:24;46940.09;;;-142.92;100.00
56456;BME280;42354;53.218;6.564;2023-04-08T02:46:49;46929.81;;;-142.92;100.00
56456;BME280;42354;53.218;6.564;2023-04-08T02:49:15;46921.63;;;-142.92;100.00
56456;BME280;42354;53.218;6.564;2023-04-08T02:51:40;46933.94;;;-142.92;100.00
56456;BME280;42354;53.218;6.564;2023-04-08T02:54:06;46925.72;;;-142.92;100.00
56456;BME280;42354;53.218;6.564;2023-04-08T02:56:31;46919.56;;;-142.92;100.00
56456;BME280;42354;53.218;6.564;2023-04-08T02:58:56;46942.13;;;-142.92;100.00
56456;BME280;42354;53.218;6.564;2023-04-08T03:01:22;46925.72;;;-142.92;100.00
56456;BME280;42354;53.218;6.564;2023-04-08T03:03:47;46921.63;;;-142.92;100.00
56456;BME280;42354;53.218;6.564;2023-04-08T03:06:12;46933.94;;;-142.92;100.00
56456;BME280;42354;53.218;6.564;2023-04-08T03:08:38;46925.72;;;-142.92;100.00
56456;BME280;42354;53.218;6.564;2023-04-08T03:11:03;46925.72;;;-142.92;100.00
56456;BME280;42354;53.218;6.564;2023-04-08T03:13:28;46929.81;;;-142.92;100.00
56456;BME280;42354;53.218;6.564;2023-04-08T03:15:54;46948.28;;;-142.92;100.00
56456;BME280;42354;53.218;6.564;2023-04-08T03:18:19;46929.81;;;-142.92;100.00
56456;BME280;42354;53.218;6.564;2023-04-08T03:20:45;46929.81;;;-142.92;100.00
56456;BME280;42354;53.218;6.564;2023-04-08T03:23:11;46935.97;;;-142.92;100.00
56456;BME280;42354;53.218;6.564;2023-04-08T03:28:01;46958.56;;;-142.92;100.00
56456;BME280;42354;53.218;6.564;2023-04-08T03:30:27;46915.47;;;-142.92;100.00
56456;BME280;42354;53.218;6.564;2023-04-08T03:32:52;46925.72;;;-142.92;100.00
56456;BME280;42354;53.218;6.564;2023-04-08T03:35:19;46905.22;;;-142.92;100.00
56456;BME280;42354;53.218;6.564;2023-04-08T03:37:44;46925.72;;;-142.92;100.00
56456;BME280;42354;53.218;6.564;2023-04-08T03:40:11;46921.63;;;-142.92;100.00
56456;BME280;42354;53.218;6.564;2023-04-08T03:42:36;46905.22;;;-142.92;100.00
56456;BME280;42354;53.218;6.564;2023-04-08T03:45:02;46935.97;;;-142.92;100.00
56456;BME280;42354;53.218;6.564;2023-04-08T03:47:27;46915.47;;;-142.92;100.00
56456;BME280;42354;53.218;6.564;2023-04-08T03:49:53;46940.09;;;-142.92;100.00
56456;BME280;42354;53.218;6.564;2023-04-08T03:52:19;46931.88;;;-142.92;100.00
56456;BME280;42354;53.218;6.564;2023-04-08T03:54:44;46927.78;;;-142.92;100.00
56456;BME280;42354;53.218;6.564;2023-04-08T03:57:09;46938.03;;;-142.92;100.00
56456;BME280;42354;53.218;6.564;2023-04-08T03:59:36;46938.03;;;-142.92;100.00
56456;BME280;42354;53.218;6.564;2023-04-08T04:02:03;46925.72;;;-142.92;100.00
56456;BME280;42354;53.218;6.564;2023-04-08T04:04:29;46927.78;;;-142.92;100.00
56456;BME280;42354;53.218;6.564;2023-04-08T04:06:54;46938.03;;;-142.92;100.00
56456;BME280;42354;53.218;6.564;2023-04-08T04:09:20;46933.94;;;-142.92;100.00
56456;BME280;42354;53.218;6.564;2023-04-08T04:11:45;46950.34;;;-142.92;100.00
56456;BME280;42354;53.218;6.564;2023-04-08T04:14:11;46942.13;;;-142.92;100.00
56456;BME280;42354;53.218;6.564;2023-04-08T04:16:36;46921.63;;;-142.92;100.00
56456;BME280;42354;53.218;6.564;2023-04-08T04:19:01;46956.50;;;-142.92;100.00
56456;BME280;42354;53.218;6.564;2023-04-08T04:21:27;46907.25;;;-142.92;100.00
56456;BME280;42354;53.218;6.564;2023-04-08T04:23:52;46944.19;;;-142.92;100.00
56456;BME280;42354;53.218;6.564;2023-04-08T04:26:17;46944.19;;;-142.92;100.00
56456;BME280;42354;53.218;6.564;2023-04-08T04:31:17;46942.13;;;-142.92;100.00
56456;BME280;42354;53.218;6.564;2023-04-08T04:33:43;46933.94;;;-142.92;100.00
56456;BME280;42354;53.218;6.564;2023-04-08T04:36:08;46927.78;;;-142.92;100.00
56456;BME280;42354;53.218;6.564;2023-04-08T04:38:33;46942.13;;;-142.92;100.00
56456;BME280;42354;53.218;6.564;2023-04-08T04:43:25;46946.25;;;-142.92;100.00
56456;BME280;42354;53.218;6.564;2023-04-08T04:45:51;46944.19;;;-142.92;100.00
56456;BME280;42354;53.218;6.564;2023-04-08T04:48:16;46933.94;;;-142.92;100.00
56456;BME280;42354;53.218;6.564;2023-04-08T04:50:42;46938.03;;;-142.92;100.00
56456;BME280;42354;53.218;6.564;2023-04-08T04:53:07;46938.03;;;-142.92;100.00
56456;BME280;42354;53.218;6.564;2023-04-08T04:55:32;46938.03;;;-142.92;100.00
56456;BME280;42354;53.218;6.564;2023-04-08T04:57:58;46921.63;;;-142.92;100.00
56456;BME280;42354;53.218;6.564;2023-04-08T05:00:23;46921.63;;;-142.92;100.00
56456;BME280;42354;53.218;6.564;2023-04-08T05:02:48;46931.88;;;-142.92;100.00
56456;BME280;42354;53.218;6.564;2023-04-08T05:05:14;46938.03;;;-142.92;100.00
56456;BME280;42354;53.218;6.564;2023-04-08T05:07:39;46938.03;;;-142.92;100.00
56456;BME280;42354;53.218;6.564;2023-04-08T05:10:05;46935.97;;;-142.92;100.00
56456;BME280;42354;53.218;6.564;2023-04-08T05:12:31;46946.25;;;-142.92;100.00
56456;BME280;42354;53.218;6.564;2023-04-08T05:14:59;46933.94;;;-142.92;100.00
56456;BME280;42354;53.218;6.564;2023-04-08T05:17:24;46944.19;;;-142.92;100.00
56456;BME280;42354;53.218;6.564;2023-04-08T05:19:50;46933.94;;;-142.92;100.00
56456;BME280;42354;53.218;6.564;2023-04-08T05:22:17;46935.97;;;-142.92;100.00
56456;BME280;42354;53.218;6.564;2023-04-08T05:24:42;46911.38;;;-142.92;100.00
56456;BME280;42354;53.218;6.564;2023-04-08T05:27:08;46958.56;;;-142.92;100.00
56456;BME280;42354;53.218;6.564;2023-04-08T05:29:35;46952.41;;;-142.92;100.00
56456;BME280;42354;53.218;6.564;2023-04-08T05:32:00;46929.81;;;-142.92;100.00
56456;BME280;42354;53.218;6.564;2023-04-08T05:34:25;46950.34;;;-142.92;100.00
56456;BME280;42354;53.218;6.564;2023-04-08T05:36:51;46933.94;;;-142.92;100.00
56456;BME280;42354;53.218;6.564;2023-04-08T05:39:17;46954.44;;;-142.92;100.00
56456;BME280;42354;53.218;6.564;2023-04-08T05:41:43;46931.88;;;-142.92;100.00
56456;BME280;42354;53.218;6.564;2023-04-08T05:44:09;46950.34;;;-142.92;100.00
56456;BME280;42354;53.218;6.564;2023-04-08T05:46:34;46931.88;;;-142.92;100.00
56456;BME280;42354;53.218;6.564;2023-04-08T05:49:00;46950.34;;;-142.92;100.00
56456;BME280;42354;53.218;6.564;2023-04-08T05:51:25;46935.97;;;-142.92;100.00
56456;BME280;42354;53.218;6.564;2023-04-08T05:53:50;46944.19;;;-142.92;100.00
56456;BME280;42354;53.218;6.564;2023-04-08T05:56:16;46948.28;;;-142.92;100.00
56456;BME280;42354;53.218;6.564;2023-04-08T05:58:41;46948.28;;;-142.92;100.00
56456;BME280;42354;53.218;6.564;2023-04-08T06:01:07;46929.81;;;-142.92;100.00
56456;BME280;42354;53.218;6.564;2023-04-08T06:03:32;46933.94;;;-142.92;100.00
56456;BME280;42354;53.218;6.564;2023-04-08T06:05:57;46952.41;;;-142.92;100.00
56456;BME280;42354;53.218;6.564;2023-04-08T06:08:23;46950.34;;;-142.92;100.00
56456;BME280;42354;53.218;6.564;2023-04-08T06:10:49;46954.44;;;-142.92;100.00
56456;BME280;42354;53.218;6.564;2023-04-08T06:13:15;46958.56;;;-142.92;100.00
56456;BME280;42354;53.218;6.564;2023-04-08T06:15:41;46942.13;;;-142.92;100.00
56456;BME280;42354;53.218;6.564;2023-04-08T06:18:06;46925.72;;;-142.92;100.00
56456;BME280;42354;53.218;6.564;2023-04-08T06:20:31;46942.13;;;-142.92;100.00
56456;BME280;42354;53.218;6.564;2023-04-08T06:22:57;46933.94;;;-142.92;100.00
56456;BME280;42354;53.218;6.564;2023-04-08T06:25:22;46944.19;;;-142.92;100.00
56456;BME280;42354;53.218;6.564;2023-04-08T06:27:47;46960.59;;;-142.92;100.00
56456;BME280;42354;53.218;6.564;2023-04-08T06:30:13;46960.59;;;-142.92;100.00
56456;BME280;42354;53.218;6.564;2023-04-08T06:32:39;46944.19;;;-142.92;100.00
56456;BME280;42354;53.218;6.564;2023-04-08T06:35:04;46960.59;;;-142.92;100.00
56456;BME280;42354;53.218;6.564;2023-04-08T06:37:30;46946.25;;;-142.92;99.57
56456;BME280;42354;53.218;6.564;2023-04-08T06:39:55;46929.81;;;-142.92;98.39
56456;BME280;42354;53.218;6.564;2023-04-08T06:42:21;46952.41;;;-142.92;98.30
56456;BME280;42354;53.218;6.564;2023-04-08T06:44:46;46962.66;;;-142.92;97.96
56456;BME280;42354;53.218;6.564;2023-04-08T06:47:12;46948.28;;;-142.92;97.63
56456;BME280;42354;53.218;6.564;2023-04-08T06:49:37;46983.19;;;-142.92;97.56
56456;BME280;42354;53.218;6.564;2023-04-08T06:52:02;46940.09;;;-142.92;96.56
56456;BME280;42354;53.218;6.564;2023-04-08T06:54:28;46966.75;;;-142.92;96.26
56456;BME280;42354;53.218;6.564;2023-04-08T06:56:53;46956.50;;;-142.92;95.84
56456;BME280;42354;53.218;6.564;2023-04-08T06:59:19;46962.66;;;-142.92;95.64
56456;BME280;42354;53.218;6.564;2023-04-08T07:01:44;46938.03;;;-142.92;95.20
56456;BME280;42354;53.218;6.564;2023-04-08T07:04:10;46956.50;;;-142.92;94.96
56456;BME280;42354;53.218;6.564;2023-04-08T07:06:36;46948.28;;;-142.92;94.82
56456;BME280;42354;53.218;6.564;2023-04-08T07:09:01;46962.66;;;-142.92;94.73
56456;BME280;42354;53.218;6.564;2023-04-08T07:11:28;46966.75;;;-142.92;94.66
56456;BME280;42354;53.218;6.564;2023-04-08T07:13:53;46950.34;;;-142.92;94.71
56456;BME280;42354;53.218;6.564;2023-04-08T07:16:19;46964.72;;;-142.92;93.92
56456;BME280;42354;53.218;6.564;2023-04-08T07:18:44;46954.44;;;-142.92;93.21
56456;BME280;42354;53.218;6.564;2023-04-08T07:21:10;46958.56;;;-142.92;92.53
56456;BME280;42354;53.218;6.564;2023-04-08T07:23:36;46942.13;;;-142.92;92.05
56456;BME280;42354;53.218;6.564;2023-04-08T07:26:02;46960.59;;;-142.92;91.41
56456;BME280;42354;53.218;6.564;2023-04-08T07:28:31;46954.44;;;-142.92;91.45
56456;BME280;42354;53.218;6.564;2023-04-08T07:31:07;46948.28;;;-142.92;90.33
56456;BME280;42354;53.218;6.564;2023-04-08T07:33:33;46962.66;;;-142.92;90.01
56456;BME280;42354;53.218;6.564;2023-04-08T07:35:58;46950.34;;;-142.92;89.32
56456;BME280;42354;53.218;6.564;2023-04-08T07:38:23;46970.88;;;-142.92;88.90
56456;BME280;42354;53.218;6.564;2023-04-08T07:40:49;46962.66;;;-142.92;88.76
56456;BME280;42354;53.218;6.564;2023-04-08T07:43:14;46968.81;;;-142.92;88.37
56456;BME280;42354;53.218;6.564;2023-04-08T07:45:39;46954.44;;;-142.92;87.57
56456;BME280;42354;53.218;6.564;2023-04-08T07:48:05;46950.34;;;-142.92;87.26
56456;BME280;42354;53.218;6.564;2023-04-08T07:50:30;46972.91;;;-142.92;87.68
56456;BME280;42354;53.218;6.564;2023-04-08T07:52:56;46970.88;;;-142.92;87.36
56456;BME280;42354;53.218;6.564;2023-04-08T07:55:22;46966.75;;;-142.92;86.39
56456;BME280;42354;53.218;6.564;2023-04-08T07:57:48;46952.41;;;-142.92;85.85
56456;BME280;42354;53.218;6.564;2023-04-08T08:00:13;46948.28;;;-142.92;85.71
56456;BME280;42354;53.218;6.564;2023-04-08T08:02:46;46948.28;;;-142.92;85.37
56456;BME280;42354;53.218;6.564;2023-04-08T08:05:12;46952.41;;;-142.92;85.12
56456;BME280;42354;53.218;6.564;2023-04-08T08:07:37;46950.34;;;-142.92;84.64
56456;BME280;42354;53.218;6.564;2023-04-08T08:10:03;46954.44;;;-142.92;84.51
56456;BME280;42354;53.218;6.564;2023-04-08T08:12:28;46970.88;;;-142.92;84.12
56456;BME280;42354;53.218;6.564;2023-04-08T08:14:54;46960.59;;;-142.92;84.08
56456;BME280;42354;53.218;6.564;2023-04-08T08:17:23;46960.59;;;-142.92;83.55
56456;BME280;42354;53.218;6.564;2023-04-08T08:19:49;46983.19;;;-142.92;83.09
56456;BME280;42354;53.218;6.564;2023-04-08T08:22:14;46962.66;;;-142.92;83.09
56456;BME280;42354;53.218;6.564;2023-04-08T08:24:41;46968.81;;;-142.92;83.09
56456;BME280;42354;53.218;6.564;2023-04-08T08:27:09;46962.66;;;-142.92;82.90
56456;BME280;42354;53.218;6.564;2023-04-08T08:29:35;46970.88;;;-142.92;83.19
56456;BME280;42354;53.218;6.564;2023-04-08T08:32:01;46946.25;;;-142.92;83.48
56456;BME280;42354;53.218;6.564;2023-04-08T08:34:28;46962.66;;;-142.92;83.11
56456;BME280;42354;53.218;6.564;2023-04-08T08:36:54;46962.66;;;-142.92;82.97
56456;BME280;42354;53.218;6.564;2023-04-08T08:39:21;46970.88;;;-142.92;82.61
56456;BME280;42354;53.218;6.564;2023-04-08T08:41:46;46974.97;;;-142.92;82.93
56456;BME280;42354;53.218;6.564;2023-04-08T08:44:12;46962.66;;;-142.92;82.55
56456;BME280;42354;53.218;6.564;2023-04-08T08:46:43;46974.97;;;-142.92;82.63
56456;BME280;42354;53.218;6.564;2023-04-08T08:49:09;46964.72;;;-142.92;83.04
56456;BME280;42354;53.218;6.564;2023-04-08T08:51:35;46950.34;;;-142.92;83.07
56456;BME280;42354;53.218;6.564;2023-04-08T08:54:03;46964.72;;;-142.92;82.81
56456;BME280;42354;53.218;6.564;2023-04-08T08:56:31;46966.75;;;-142.92;83.35
56456;BME280;42354;53.218;6.564;2023-04-08T08:58:58;46958.56;;;-142.92;83.73
56456;BME280;42354;53.218;6.564;2023-04-08T09:01:31;46940.09;;;-142.92;84.23
56456;BME280;42354;53.218;6.564;2023-04-08T09:04:12;46962.66;;;-142.92;84.61
56456;BME280;42354;53.218;6.564;2023-04-08T09:06:39;46968.81;;;-142.92;84.97
56456;BME280;42354;53.218;6.564;2023-04-08T09:09:05;46962.66;;;-142.92;85.81
56456;BME280;42354;53.218;6.564;2023-04-08T09:11:35;46964.72;;;-142.92;85.50
56456;BME280;42354;53.218;6.564;2023-04-08T09:14:03;46958.56;;;-142.92;85.35
56456;BME280;42354;53.218;6.564;2023-04-08T09:16:29;46952.41;;;-142.92;85.51
56456;BME280;42354;53.218;6.564;2023-04-08T09:19:07;46966.75;;;-142.92;85.56
56456;BME280;42354;53.218;6.564;2023-04-08T09:21:33;46970.88;;;-142.92;86.10
56456;BME280;42354;53.218;6.564;2023-04-08T09:23:59;46993.44;;;-142.92;86.13
56456;BME280;42354;53.218;6.564;2023-04-08T09:26:25;46966.75;;;-142.92;85.76
56456;BME280;42354;53.218;6.564;2023-04-08T09:29:04;46948.28;;;-142.92;85.35
56456;BME280;42354;53.218;6.564;2023-04-08T09:31:37;46958.56;;;-142.92;85.22
56456;BME280;42354;53.218;6.564;2023-04-08T09:34:12;46983.19;;;-142.92;85.38
56456;BME280;42354;53.218;6.564;2023-04-08T09:36:38;46979.06;;;-142.92;85.39
56456;BME280;42354;53.218;6.564;2023-04-08T09:39:03;46960.59;;;-142.92;85.35
56456;BME280;42354;53.218;6.564;2023-04-08T09:41:33;46964.72;;;-142.92;85.09
56456;BME280;42354;53.218;6.564;2023-04-08T09:43:59;46970.88;;;-142.92;84.80
56456;BME280;42354;53.218;6.564;2023-04-08T09:49:28;46977.03;;;-142.92;83.15
56456;BME280;42354;53.218;6.564;2023-04-08T09:52:14;46991.38;;;-142.92;83.10
56456;BME280;42354;53.218;6.564;2023-04-08T09:55:04;46983.19;;;-142.92;82.67
56456;BME280;42354;53.218;6.564;2023-04-08T09:57:40;46962.66;;;-142.92;81.87
56456;BME280;42354;53.218;6.564;2023-04-08T10:00:14;46962.66;;;-142.92;81.87
56456;BME280;42354;53.218;6.564;2023-04-08T10:02:54;46966.75;;;-142.92;81.58
56456;BME280;42354;53.218;6.564;2023-04-08T10:05:23;46970.88;;;-142.92;82.02
56456;BME280;42354;53.218;6.564;2023-04-08T10:07:49;46974.97;;;-142.92;81.57
56456;BME280;42354;53.218;6.564;2023-04-08T10:10:15;46956.50;;;-142.92;81.38
56456;BME280;42354;53.218;6.564;2023-04-08T10:12:43;46966.75;;;-142.92;81.24
56456;BME280;42354;53.218;6.564;2023-04-08T10:17:52;46987.28;;;-142.92;80.48
56456;BME280;42354;53.218;6.564;2023-04-08T10:23:03;46979.06;;;-142.92;80.80
56456;BME280;42354;53.218;6.564;2023-04-08T10:27:59;46993.44;;;-142.92;80.26
56456;BME280;42354;53.218;6.564;2023-04-08T10:32:54;46981.13;;;-142.92;79.58
56456;BME280;42354;53.218;6.564;2023-04-08T10:35:30;46966.75;;;-142.92;79.54
56456;BME280;42354;53.218;6.564;2023-04-08T10:37:57;46991.38;;;-142.92;79.98
56456;BME280;42354;53.218;6.564;2023-04-08T10:40:22;46966.75;;;-142.92;80.26
56456;BME280;42354;53.218;6.564;2023-04-08T10:42:55;46970.88;;;-142.92;79.60
56456;BME280;42354;53.218;6.564;2023-04-08T10:45:20;46964.72;;;-142.92;80.07
56456;BME280;42354;53.218;6.564;2023-04-08T10:47:47;46979.06;;;-142.92;79.98
56456;BME280;42354;53.218;6.564;2023-04-08T10:50:14;46966.75;;;-142.92;80.14
56456;BME280;42354;53.218;6.564;2023-04-08T10:52:48;46966.75;;;-142.92;79.49
56456;BME280;42354;53.218;6.564;2023-04-08T10:55:14;46962.66;;;-142.92;79.50
56456;BME280;42354;53.218;6.564;2023-04-08T10:57:41;46974.97;;;-142.92;79.31
56456;BME280;42354;53.218;6.564;2023-04-08T11:00:10;46989.34;;;-142.92;78.75
56456;BME280;42354;53.218;6.564;2023-04-08T11:02:39;46974.97;;;-142.92;78.89
56456;BME280;42354;53.218;6.564;2023-04-08T11:05:05;46974.97;;;-142.92;79.14
56456;BME280;42354;53.218;6.564;2023-04-08T11:07:31;46983.19;;;-142.92;79.21
56456;BME280;42354;53.218;6.564;2023-04-08T11:09:57;46979.06;;;-142.92;79.12
56456;BME280;42354;53.218;6.564;2023-04-08T11:12:27;46966.75;;;-142.92;79.24
56456;BME280;42354;53.218;6.564;2023-04-08T11:14:53;46987.28;;;-142.92;79.64
56456;BME280;42354;53.218;6.564;2023-04-08T11:17:18;46987.28;;;-142.92;80.21
56456;BME280;42354;53.218;6.564;2023-04-08T11:19:45;46987.28;;;-142.92;80.38
56456;BME280;42354;53.218;6.564;2023-04-08T11:22:11;46970.88;;;-142.92;80.45
56456;BME280;42354;53.218;6.564;2023-04-08T11:24:37;46987.28;;;-142.92;80.42
56456;BME280;42354;53.218;6.564;2023-04-08T11:27:03;46977.03;;;-142.92;80.19
56456;BME280;42354;53.218;6.564;2023-04-08T11:29:30;46960.59;;;-142.92;80.10
56456;BME280;42354;53.218;6.564;2023-04-08T11:31:56;46991.38;;;-142.92;80.24
56456;BME280;42354;53.218;6.564;2023-04-08T11:34:23;46977.03;;;-142.92;79.93
56456;BME280;42354;53.218;6.564;2023-04-08T11:36:51;46999.59;;;-142.92;79.53
56456;BME280;42354;53.218;6.564;2023-04-08T11:39:16;46987.28;;;-142.92;79.53
56456;BME280;42354;53.218;6.564;2023-04-08T11:41:41;46985.22;;;-142.92;79.06
56456;BME280;42354;53.218;6.564;2023-04-08T11:44:10;46974.97;;;-142.92;78.74
56456;BME280;42354;53.218;6.564;2023-04-08T11:46:35;46983.19;;;-142.92;78.50
56456;BME280;42354;53.218;6.564;2023-04-08T11:49:04;46989.34;;;-142.92;78.10
56456;BME280;42354;53.218;6.564;2023-04-08T11:51:31;46977.03;;;-142.92;78.12
56456;BME280;42354;53.218;6.564;2023-04-08T11:53:56;46977.03;;;-142.92;78.11
56456;BME280;42354;53.218;6.564;2023-04-08T11:56:22;46985.22;;;-142.92;78.81
56456;BME280;42354;53.218;6.564;2023-04-08T11:58:49;46974.97;;;-142.92;79.79
56456;BME280;42354;53.218;6.564;2023-04-08T12:01:14;46977.03;;;-142.92;79.92
56456;BME280;42354;53.218;6.564;2023-04-08T12:03:53;46989.34;;;-142.92;79.94
56456;BME280;42354;53.218;6.564;2023-04-08T12:06:19;46974.97;;;-142.92;79.72
56456;BME280;42354;53.218;6.564;2023-04-08T12:08:45;46966.75;;;-142.92;79.50
56456;BME280;42354;53.218;6.564;2023-04-08T12:11:10;46964.72;;;-142.92;79.89
56456;BME280;42354;53.218;6.564;2023-04-08T12:13:36;46968.81;;;-142.92;80.13
56456;BME280;42354;53.218;6.564;2023-04-08T12:16:03;46987.28;;;-142.92;80.16
56456;BME280;42354;53.218;6.564;2023-04-08T12:18:28;46993.44;;;-142.92;80.07
56456;BME280;42354;53.218;6.564;2023-04-08T12:20:54;46962.66;;;-142.92;79.67
56456;BME280;42354;53.218;6.564;2023-04-08T12:23:19;46983.19;;;-142.92;79.22
56456;BME280;42354;53.218;6.564;2023-04-08T12:25:45;46979.06;;;-142.92;79.01
56456;BME280;42354;53.218;6.564;2023-04-08T12:28:10;46966.75;;;-142.92;78.61
56456;BME280;42354;53.218;6.564;2023-04-08T12:30:36;46979.06;;;-142.92;78.03
56456;BME280;42354;53.218;6.564;2023-04-08T12:33:02;46979.06;;;-142.92;77.92
56456;BME280;42354;53.218;6.564;2023-04-08T12:35:27;46977.03;;;-142.92;77.27
56456;BME280;42354;53.218;6.564;2023-04-08T12:37:52;46962.66;;;-142.92;77.32
56456;BME280;42354;53.218;6.564;2023-04-08T12:40:19;46972.91;;;-142.92;77.11
56456;BME280;42354;53.218;6.564;2023-04-08T12:42:45;46972.91;;;-142.92;76.87
56456;BME280;42354;53.218;6.564;2023-04-08T12:45:12;46974.97;;;-142.92;76.37
56456;BME280;42354;53.218;6.564;2023-04-08T12:47:37;46987.28;;;-142.92;75.94
56456;BME280;42354;53.218;6.564;2023-04-08T12:50:02;46991.38;;;-142.92;75.54
56456;BME280;42354;53.218;6.564;2023-04-08T12:52:29;46974.97;;;-142.92;74.97
56456;BME280;42354;53.218;6.564;2023-04-08T12:54:54;46987.28;;;-142.92;74.48
56456;BME280;42354;53.218;6.564;2023-04-08T12:57:20;46966.75;;;-142.92;73.80
56456;BME280;42354;53.218;6.564;2023-04-08T12:59:45;46970.88;;;-142.92;73.50
56456;BME280;42354;53.218;6.564;2023-04-08T13:02:10;46985.22;;;-142.92;73.35
56456;BME280;42354;53.218;6.564;2023-04-08T13:04:36;46985.22;;;-142.92;73.42